createdAt,value
2023-08-15T00:00:23.105Z,66.16
2023-08-15T00:02:50.071Z,66.32
2023-08-15T00:04:53.232Z,66.56
2023-08-15T00:07:00.016Z,66.55
2023-08-15T00:09:04.155Z,66.48
2023-08-15T00:11:07.974Z,66.60
2023-08-15T00:13:12.666Z,66.86
2023-08-15T00:15:15.516Z,66.95
2023-08-15T00:17:18.940Z,66.80
2023-08-15T00:19:22.995Z,66.85
2023-08-15T00:21:25.704Z,66.84
2023-08-15T00:23:34.364Z,66.91
2023-08-15T00:25:37.931Z,66.91
2023-08-15T00:27:41.625Z,67.01
2023-08-15T00:29:44.912Z,66.88
2023-08-15T00:31:48.555Z,66.78
2023-08-15T00:33:52.765Z,66.82
2023-08-15T00:35:56.465Z,66.65
2023-08-15T00:37:59.812Z,66.76
2023-08-15T00:40:03.526Z,66.80
2023-08-15T00:42:06.477Z,66.78
2023-08-15T00:44:10.364Z,67.01
2023-08-15T00:46:15.826Z,67.17
2023-08-15T00:48:23.617Z,67.22
2023-08-15T00:50:29.079Z,67.23
2023-08-15T00:52:33.563Z,67.14
2023-08-15T00:54:37.385Z,67.27
2023-08-15T00:56:41.400Z,67.26
2023-08-15T00:58:46.046Z,67.38
2023-08-15T01:00:54.270Z,67.55
2023-08-15T01:02:57.211Z,67.59
2023-08-15T01:05:01.060Z,67.60
2023-08-15T01:07:04.204Z,67.87
2023-08-15T01:09:07.066Z,67.82
2023-08-15T01:11:11.242Z,67.82
2023-08-15T01:13:28.065Z,67.78
2023-08-15T01:15:35.628Z,67.92
2023-08-15T01:17:50.009Z,67.94
2023-08-15T01:19:55.489Z,68.03
2023-08-15T01:22:00.134Z,68.07
2023-08-15T01:24:06.808Z,68.20
2023-08-15T01:26:09.885Z,68.19
2023-08-15T01:28:14.002Z,68.39
2023-08-15T01:30:22.294Z,68.16
2023-08-15T01:32:43.890Z,68.21
2023-08-15T01:35:01.271Z,68.09
2023-08-15T01:37:20.683Z,68.11
2023-08-15T01:39:29.170Z,68.42
2023-08-15T01:41:36.856Z,68.49
2023-08-15T01:43:40.933Z,68.67
2023-08-15T01:45:43.860Z,68.66
2023-08-15T01:47:47.614Z,68.85
2023-08-15T01:49:50.845Z,69.18
2023-08-15T01:51:56.305Z,69.11
2023-08-15T01:54:03.871Z,69.11
2023-08-15T01:56:07.150Z,69.03
2023-08-15T01:58:11.426Z,68.89
2023-08-15T02:00:16.577Z,68.88
2023-08-15T02:02:19.735Z,68.95
2023-08-15T02:04:25.433Z,68.73
2023-08-15T02:06:34.739Z,69.06
2023-08-15T02:08:39.576Z,69.01
2023-08-15T02:10:43.418Z,68.98
2023-08-15T02:12:47.764Z,69.07
2023-08-15T02:14:52.179Z,69.09
2023-08-15T02:16:55.925Z,68.96
2023-08-15T02:18:58.600Z,68.92
2023-08-15T02:21:01.886Z,68.82
2023-08-15T02:23:04.756Z,68.58
2023-08-15T02:25:13.485Z,68.71
2023-08-15T02:27:19.115Z,68.69
2023-08-15T02:29:22.168Z,68.50
2023-08-15T02:31:27.992Z,68.57
2023-08-15T02:33:31.124Z,68.78
2023-08-15T02:35:42.734Z,68.93
2023-08-15T02:37:45.999Z,69.10
2023-08-15T02:39:49.707Z,69.34
2023-08-15T02:41:55.053Z,69.24
2023-08-15T02:44:00.126Z,69.39
2023-08-15T02:46:06.240Z,69.37
2023-08-15T02:48:12.681Z,69.50
2023-08-15T02:50:17.324Z,69.36
2023-08-15T02:52:20.041Z,69.37
2023-08-15T02:54:24.201Z,69.39
2023-08-15T02:56:27.116Z,69.20
2023-08-15T02:58:29.837Z,69.36
2023-08-15T03:00:34.016Z,69.24
2023-08-15T03:02:37.276Z,69.23
2023-08-15T03:04:40.256Z,69.04
2023-08-15T03:06:43.895Z,68.99
2023-08-15T03:08:48.553Z,69.07
2023-08-15T03:10:52.159Z,69.03
2023-08-15T03:12:58.888Z,68.64
2023-08-15T03:15:04.733Z,68.74
2023-08-15T03:17:08.850Z,68.82
2023-08-15T03:19:11.997Z,68.96
2023-08-15T03:21:15.193Z,68.81
2023-08-15T03:23:18.042Z,68.84
2023-08-15T03:25:21.234Z,68.93
2023-08-15T03:27:24.146Z,68.85
2023-08-15T03:29:28.560Z,68.64
2023-08-15T03:31:39.013Z,68.75
2023-08-15T03:33:42.183Z,68.78
2023-08-15T03:35:50.967Z,68.61
2023-08-15T03:37:54.045Z,68.59
2023-08-15T03:39:57.814Z,68.66
2023-08-15T03:42:00.591Z,68.72
2023-08-15T03:44:05.966Z,68.92
2023-08-15T03:46:09.676Z,69.04
2023-08-15T03:48:13.480Z,69.02
2023-08-15T03:50:17.929Z,69.18
2023-08-15T03:52:20.553Z,69.03
2023-08-15T03:54:23.700Z,68.89
2023-08-15T03:56:27.411Z,68.88
2023-08-15T03:58:31.382Z,68.77
2023-08-15T04:00:34.234Z,68.81
2023-08-15T04:02:36.864Z,68.94
2023-08-15T04:04:39.541Z,68.92
2023-08-15T04:06:42.604Z,68.83
2023-08-15T04:08:46.654Z,69.00
2023-08-15T04:10:51.950Z,68.97
2023-08-15T04:12:55.015Z,68.92
2023-08-15T04:14:58.634Z,68.96
2023-08-15T04:17:01.638Z,69.05
2023-08-15T04:19:05.309Z,69.04
2023-08-15T04:21:09.412Z,69.07
2023-08-15T04:23:12.509Z,68.90
2023-08-15T04:25:15.564Z,68.93
2023-08-15T04:27:19.484Z,69.09
2023-08-15T04:29:23.485Z,68.92
2023-08-15T04:31:26.535Z,69.05
2023-08-15T04:33:31.316Z,69.34
2023-08-15T04:35:34.918Z,69.19
2023-08-15T04:37:37.569Z,69.49
2023-08-15T04:39:40.315Z,69.53
2023-08-15T04:41:43.437Z,69.52
2023-08-15T04:43:48.606Z,69.62
2023-08-15T04:45:52.823Z,69.55
2023-08-15T04:47:59.865Z,69.50
2023-08-15T04:50:04.028Z,69.74
2023-08-15T04:52:16.262Z,69.56
2023-08-15T04:54:21.851Z,69.57
2023-08-15T04:56:25.509Z,69.56
2023-08-15T04:58:29.246Z,69.67
2023-08-15T05:00:35.116Z,69.70
2023-08-15T05:02:41.534Z,69.98
2023-08-15T05:04:44.270Z,69.68
2023-08-15T05:06:47.066Z,69.74
2023-08-15T05:08:51.677Z,69.87
2023-08-15T05:10:55.468Z,69.79
2023-08-15T05:13:00.402Z,69.81
2023-08-15T05:15:09.010Z,69.63
2023-08-15T05:17:11.960Z,69.73
2023-08-15T05:19:18.436Z,69.74
2023-08-15T05:21:22.514Z,69.76
2023-08-15T05:23:25.696Z,69.85
2023-08-15T05:25:28.604Z,69.89
2023-08-15T05:27:34.496Z,70.04
2023-08-15T05:29:41.692Z,70.00
2023-08-15T05:31:44.710Z,70.38
2023-08-15T05:33:50.522Z,70.65
2023-08-15T05:35:53.341Z,70.70
2023-08-15T05:37:56.215Z,70.58
2023-08-15T05:40:05.184Z,70.54
2023-08-15T05:42:08.414Z,70.36
2023-08-15T05:44:11.878Z,70.11
2023-08-15T05:46:21.590Z,70.16
2023-08-15T05:48:24.713Z,70.14
2023-08-15T05:50:28.760Z,70.00
2023-08-15T05:52:31.740Z,70.04
2023-08-15T05:54:35.852Z,70.03
2023-08-15T05:56:39.444Z,69.99
2023-08-15T05:58:45.365Z,70.01
2023-08-15T06:00:49.008Z,69.77
2023-08-15T06:02:51.731Z,69.78
2023-08-15T06:04:55.909Z,69.87
2023-08-15T06:06:58.797Z,69.62
2023-08-15T06:09:03.993Z,69.64
2023-08-15T06:11:07.142Z,69.47
2023-08-15T06:13:10.617Z,69.38
2023-08-15T06:15:13.920Z,69.28
2023-08-15T06:17:18.458Z,69.22
2023-08-15T06:19:22.732Z,69.36
2023-08-15T06:21:26.590Z,69.18
2023-08-15T06:23:29.733Z,69.37
2023-08-15T06:25:35.218Z,69.22
2023-08-15T06:27:38.864Z,69.16
2023-08-15T06:29:43.640Z,69.05
2023-08-15T06:31:46.750Z,68.92
2023-08-15T06:33:52.257Z,68.86
2023-08-15T06:35:57.309Z,68.65
2023-08-15T06:38:02.091Z,68.45
2023-08-15T06:40:09.684Z,68.48
2023-08-15T06:42:12.347Z,68.32
2023-08-15T06:44:15.146Z,68.11
2023-08-15T06:46:18.979Z,68.11
2023-08-15T06:48:24.257Z,67.93
2023-08-15T06:50:29.858Z,68.08
2023-08-15T06:52:36.772Z,67.98
2023-08-15T06:54:40.836Z,68.17
2023-08-15T06:56:43.777Z,68.08
2023-08-15T06:58:46.759Z,68.11
2023-08-15T07:00:52.172Z,67.80
2023-08-15T07:02:55.438Z,67.93
2023-08-15T07:05:00.835Z,68.16
2023-08-15T07:07:05.395Z,67.96
2023-08-15T07:09:10.778Z,68.06
2023-08-15T07:11:13.807Z,67.96
2023-08-15T07:13:16.481Z,67.67
2023-08-15T07:15:20.107Z,67.67
2023-08-15T07:17:22.809Z,67.58
2023-08-15T07:19:25.861Z,67.25
2023-08-15T07:21:29.424Z,67.27
2023-08-15T07:23:32.161Z,67.19
2023-08-15T07:25:47.491Z,66.95
2023-08-15T07:27:51.454Z,67.00
2023-08-15T07:29:55.732Z,66.95
2023-08-15T07:31:58.820Z,67.25
2023-08-15T07:34:05.640Z,67.23
2023-08-15T07:36:13.257Z,67.18
2023-08-15T07:38:38.405Z,67.22
2023-08-15T07:40:43.219Z,66.82
2023-08-15T07:42:51.250Z,66.85
2023-08-15T07:44:55.441Z,66.64
2023-08-15T07:47:00.413Z,66.66
2023-08-15T07:49:04.691Z,66.63
2023-08-15T07:51:07.931Z,66.38
2023-08-15T07:53:11.649Z,66.26
2023-08-15T07:55:14.339Z,66.10
2023-08-15T07:57:17.170Z,66.02
2023-08-15T07:59:20.027Z,65.92
2023-08-15T08:01:23.827Z,65.95
2023-08-15T08:03:39.870Z,66.02
2023-08-15T08:05:43.154Z,65.99
2023-08-15T08:07:46.564Z,65.94
2023-08-15T08:09:51.473Z,65.93
2023-08-15T08:11:54.169Z,65.61
2023-08-15T08:13:57.197Z,65.71
2023-08-15T08:16:01.056Z,65.08
2023-08-15T08:18:05.093Z,65.01
2023-08-15T08:20:17.285Z,64.71
2023-08-15T08:22:21.568Z,64.79
2023-08-15T08:24:27.367Z,64.63
2023-08-15T08:26:32.720Z,64.79
2023-08-15T08:28:40.376Z,64.47
2023-08-15T08:30:43.536Z,64.70
2023-08-15T08:32:47.065Z,64.69
2023-08-15T08:34:49.981Z,64.74
2023-08-15T08:36:55.416Z,64.65
2023-08-15T08:38:59.904Z,64.77
2023-08-15T08:41:03.313Z,64.74
2023-08-15T08:43:06.561Z,64.63
2023-08-15T08:45:15.786Z,64.21
2023-08-15T08:47:24.614Z,64.01
2023-08-15T08:49:28.859Z,64.04
2023-08-15T08:51:35.362Z,64.02
2023-08-15T08:53:45.328Z,63.72
2023-08-15T08:55:49.370Z,63.73
2023-08-15T08:57:54.680Z,63.42
2023-08-15T08:59:59.348Z,63.15
2023-08-15T09:02:03.749Z,63.18
2023-08-15T09:04:08.033Z,63.24
2023-08-15T09:06:13.576Z,63.39
2023-08-15T09:08:17.869Z,63.33
2023-08-15T09:10:24.524Z,63.47
2023-08-15T09:12:41.847Z,63.15
2023-08-15T09:14:52.175Z,63.44
2023-08-15T09:16:55.648Z,63.55
2023-08-15T09:19:02.090Z,63.38
2023-08-15T09:21:11.967Z,63.26
2023-08-15T09:23:16.401Z,62.82
2023-08-15T09:25:20.130Z,62.70
2023-08-15T09:27:23.423Z,62.69
2023-08-15T09:29:27.930Z,62.76
2023-08-15T09:31:31.121Z,63.01
2023-08-15T09:33:36.107Z,63.09
2023-08-15T09:35:52.994Z,63.34
2023-08-15T09:38:07.428Z,63.28
2023-08-15T09:40:18.214Z,62.75
2023-08-15T09:42:21.661Z,62.52
2023-08-15T09:44:35.577Z,62.28
2023-08-15T09:46:49.306Z,62.36
2023-08-15T09:48:58.694Z,62.38
2023-08-15T09:51:04.604Z,62.37
2023-08-15T09:53:08.886Z,61.95
2023-08-15T09:55:15.479Z,61.66
2023-08-15T09:57:18.626Z,61.50
2023-08-15T09:59:27.267Z,61.62
2023-08-15T10:01:31.990Z,61.51
2023-08-15T10:03:42.737Z,61.34
2023-08-15T10:05:52.257Z,61.26
2023-08-15T10:07:58.450Z,61.31
2023-08-15T10:10:04.477Z,61.41
2023-08-15T10:12:10.342Z,61.73
2023-08-15T10:14:17.260Z,61.45
2023-08-15T10:16:20.513Z,61.47
2023-08-15T10:18:24.812Z,61.37
2023-08-15T10:20:39.442Z,61.15
2023-08-15T10:22:42.713Z,60.45
2023-08-15T10:24:46.116Z,60.37
2023-08-15T10:26:54.777Z,60.69
2023-08-15T10:28:57.529Z,60.68
2023-08-15T10:31:00.397Z,60.34
2023-08-15T10:33:14.524Z,60.09
2023-08-15T10:35:32.342Z,60.02
2023-08-15T10:37:42.380Z,59.68
2023-08-15T10:40:05.814Z,59.92
2023-08-15T10:42:09.094Z,60.39
2023-08-15T10:44:13.411Z,60.20
2023-08-15T10:46:26.360Z,60.47
2023-08-15T10:49:04.268Z,59.62
2023-08-15T10:51:18.332Z,59.56
2023-08-15T10:53:21.023Z,59.72
2023-08-15T10:55:28.861Z,59.68
2023-08-15T10:57:35.248Z,59.85
2023-08-15T10:59:40.618Z,59.80
2023-08-15T11:01:45.285Z,59.67
2023-08-15T11:03:52.266Z,59.53
2023-08-15T11:06:15.321Z,59.18
2023-08-15T11:08:21.066Z,59.36
2023-08-15T11:10:23.897Z,59.07
2023-08-15T11:12:27.565Z,58.97
2023-08-15T11:14:30.193Z,59.15
2023-08-15T11:16:33.423Z,59.25
2023-08-15T11:18:37.812Z,59.05
2023-08-15T11:20:40.584Z,59.10
2023-08-15T11:22:56.585Z,59.10
2023-08-15T11:25:00.826Z,58.91
2023-08-15T11:27:07.409Z,59.01
2023-08-15T11:29:12.148Z,59.07
2023-08-15T11:31:22.661Z,58.65
2023-08-15T11:33:29.949Z,58.42
2023-08-15T11:35:36.272Z,58.75
2023-08-15T11:37:41.405Z,58.74
2023-08-15T11:39:56.407Z,58.72
2023-08-15T11:42:03.742Z,58.29
2023-08-15T11:44:06.769Z,58.38
2023-08-15T11:46:09.888Z,58.22
2023-08-15T11:48:14.253Z,58.06
2023-08-15T11:50:27.355Z,58.16
2023-08-15T11:52:46.606Z,58.05
2023-08-15T11:54:49.752Z,58.24
2023-08-15T11:56:55.574Z,58.13
2023-08-15T11:59:07.443Z,58.39
2023-08-15T12:01:11.241Z,58.07
2023-08-15T12:03:14.107Z,58.09
2023-08-15T12:05:19.428Z,57.91
2023-08-15T12:07:22.574Z,58.08
2023-08-15T12:09:30.732Z,58.05
2023-08-15T12:11:36.193Z,58.17
2023-08-15T12:13:41.349Z,58.05
2023-08-15T12:15:44.238Z,58.14
2023-08-15T12:17:47.372Z,58.19
2023-08-15T12:19:50.114Z,57.95
2023-08-15T12:21:55.626Z,57.88
2023-08-15T12:23:59.910Z,57.71
2023-08-15T12:26:02.701Z,57.47
2023-08-15T12:28:07.061Z,57.25
2023-08-15T12:30:13.696Z,57.05
2023-08-15T12:32:21.818Z,57.04
2023-08-15T12:34:24.852Z,57.07
2023-08-15T12:36:27.638Z,57.29
2023-08-15T12:38:30.922Z,57.26
2023-08-15T12:40:33.725Z,57.21
2023-08-15T12:42:41.607Z,57.32
2023-08-15T12:45:02.054Z,57.21
2023-08-15T12:47:05.371Z,57.36
2023-08-15T12:49:08.089Z,57.79
2023-08-15T12:51:11.211Z,57.81
2023-08-15T12:53:14.025Z,57.86
2023-08-15T12:55:17.373Z,57.50
2023-08-15T12:57:27.473Z,57.35
2023-08-15T12:59:30.098Z,56.78
2023-08-15T13:01:33.873Z,56.75
2023-08-15T13:03:38.870Z,56.76
2023-08-15T13:05:44.694Z,56.86
2023-08-15T13:07:48.822Z,56.71
2023-08-15T13:09:52.406Z,56.82
2023-08-15T13:11:56.528Z,56.77
2023-08-15T13:14:00.524Z,56.79
2023-08-15T13:16:07.107Z,56.36
2023-08-15T13:18:10.158Z,56.22
2023-08-15T13:20:13.210Z,56.01
2023-08-15T13:22:16.861Z,55.95
2023-08-15T13:24:19.766Z,56.59
2023-08-15T13:26:22.920Z,56.67
2023-08-15T13:28:25.591Z,56.76
2023-08-15T13:30:31.347Z,56.25
2023-08-15T13:32:33.952Z,55.85
2023-08-15T13:34:36.760Z,55.71
2023-08-15T13:36:42.055Z,55.56
2023-08-15T13:38:47.344Z,54.85
2023-08-15T13:40:52.531Z,54.71
2023-08-15T13:42:59.125Z,55.02
2023-08-15T13:45:06.021Z,55.55
2023-08-15T13:47:12.233Z,55.64
2023-08-15T13:49:15.118Z,56.29
2023-08-15T13:51:20.219Z,56.51
2023-08-15T13:53:23.527Z,57.05
2023-08-15T13:55:31.042Z,57.39
2023-08-15T13:57:34.608Z,57.55
2023-08-15T13:59:40.171Z,57.70
2023-08-15T14:01:43.734Z,57.82
2023-08-15T14:03:48.965Z,57.47
2023-08-15T14:05:52.180Z,57.52
2023-08-15T14:07:55.059Z,57.70
2023-08-15T14:09:57.792Z,57.75
2023-08-15T14:12:01.107Z,57.82
2023-08-15T14:14:04.500Z,57.56
2023-08-15T14:16:07.426Z,57.39
2023-08-15T14:18:10.382Z,56.98
2023-08-15T14:20:14.939Z,57.05
2023-08-15T14:22:19.690Z,57.12
2023-08-15T14:24:34.281Z,56.43
2023-08-15T14:26:37.608Z,56.24
2023-08-15T14:28:40.225Z,56.27
2023-08-15T14:30:50.096Z,56.39
2023-08-15T14:32:54.855Z,55.72
2023-08-15T14:34:58.905Z,55.25
2023-08-15T14:37:01.853Z,55.08
2023-08-15T14:39:05.475Z,54.71
2023-08-15T14:41:12.570Z,54.23
2023-08-15T14:43:18.221Z,54.45
2023-08-15T14:45:43.720Z,53.62
2023-08-15T14:47:48.060Z,53.26
2023-08-15T14:49:53.694Z,52.96
2023-08-15T14:51:56.275Z,52.81
2023-08-15T14:54:03.551Z,52.48
2023-08-15T14:56:07.577Z,52.54
2023-08-15T14:58:10.958Z,52.23
2023-08-15T15:00:14.920Z,51.98
2023-08-15T15:02:20.995Z,51.61
2023-08-15T15:04:24.912Z,51.04
2023-08-15T15:06:28.810Z,51.90
2023-08-15T15:08:34.642Z,51.80
2023-08-15T15:10:38.882Z,51.52
2023-08-15T15:12:41.891Z,51.58
2023-08-15T15:14:45.390Z,51.37
2023-08-15T15:16:48.593Z,51.02
2023-08-15T15:18:51.876Z,50.64
2023-08-15T15:20:59.396Z,50.31
2023-08-15T15:23:07.162Z,50.03
2023-08-15T15:25:13.286Z,49.22
2023-08-15T15:27:22.549Z,48.20
2023-08-15T15:29:27.045Z,47.62
2023-08-15T15:31:34.351Z,47.36
2023-08-15T15:33:38.076Z,46.32
2023-08-15T15:35:44.602Z,45.30
2023-08-15T15:37:48.693Z,45.48
2023-08-15T15:39:54.201Z,45.25
2023-08-15T15:41:57.444Z,44.54
2023-08-15T15:44:01.997Z,43.67
2023-08-15T15:46:06.803Z,43.89
2023-08-15T15:48:10.679Z,44.37
2023-08-15T15:50:34.844Z,44.14
2023-08-15T15:52:39.221Z,43.68
2023-08-15T15:54:47.552Z,44.11
2023-08-15T15:56:52.777Z,43.76
2023-08-15T15:58:56.710Z,43.36
2023-08-15T16:01:02.270Z,42.77
2023-08-15T16:03:05.558Z,42.37
2023-08-15T16:05:10.077Z,42.17
2023-08-15T16:07:16.191Z,41.22
2023-08-15T16:09:19.004Z,40.79
2023-08-15T16:11:26.167Z,40.76
2023-08-15T16:13:32.002Z,40.37
2023-08-15T16:15:43.272Z,40.32
2023-08-15T16:17:47.854Z,39.89
2023-08-15T16:19:55.646Z,39.36
2023-08-15T16:21:59.250Z,38.76
2023-08-15T16:24:02.140Z,38.62
2023-08-15T16:26:05.072Z,38.98
2023-08-15T16:28:10.225Z,39.25
2023-08-15T16:30:17.972Z,39.47
2023-08-15T16:32:26.963Z,40.20
2023-08-15T16:34:31.369Z,40.73
2023-08-15T16:36:35.744Z,41.31
2023-08-15T16:38:43.781Z,41.37
2023-08-15T16:40:49.176Z,41.41
2023-08-15T16:43:19.238Z,41.98
2023-08-15T16:45:29.940Z,42.07
2023-08-15T16:47:33.485Z,41.76
2023-08-15T16:49:38.466Z,41.75
2023-08-15T16:51:41.838Z,41.91
2023-08-15T16:53:46.210Z,41.67
2023-08-15T16:55:49.091Z,41.65
2023-08-15T16:57:53.394Z,41.59
2023-08-15T16:59:56.808Z,41.71
2023-08-15T17:02:02.710Z,41.43
2023-08-15T17:04:14.970Z,41.83
2023-08-15T17:06:21.885Z,41.99
2023-08-15T17:08:27.182Z,42.40
2023-08-15T17:10:31.897Z,42.73
2023-08-15T17:12:35.662Z,42.80
2023-08-15T17:14:38.721Z,43.11
2023-08-15T17:16:43.195Z,43.25
2023-08-15T17:18:46.219Z,43.33
2023-08-15T17:20:52.079Z,43.57
2023-08-15T17:22:55.713Z,43.71
2023-08-15T17:25:00.138Z,43.78
2023-08-15T17:27:03.377Z,43.65
2023-08-15T17:29:09.453Z,44.13
2023-08-15T17:31:13.371Z,44.06
2023-08-15T17:33:17.685Z,44.13
2023-08-15T17:35:27.863Z,44.49
2023-08-15T17:37:33.220Z,44.62
2023-08-15T17:39:35.871Z,44.89
2023-08-15T17:41:38.525Z,44.78
2023-08-15T17:43:41.214Z,44.92
2023-08-15T17:45:43.803Z,45.07
2023-08-15T17:47:46.698Z,45.41
2023-08-15T17:49:50.720Z,45.04
2023-08-15T17:51:53.404Z,45.14
2023-08-15T17:53:56.400Z,45.14
2023-08-15T17:56:00.306Z,45.62
2023-08-15T17:58:04.339Z,45.94
2023-08-15T18:00:09.319Z,46.66
2023-08-15T18:02:12.181Z,47.00
2023-08-15T18:04:15.928Z,47.52
2023-08-15T18:06:19.121Z,47.74
2023-08-15T18:08:21.681Z,47.89
2023-08-15T18:10:25.827Z,48.19
2023-08-15T18:12:30.666Z,48.28
2023-08-15T18:14:33.790Z,48.51
2023-08-15T18:16:36.723Z,48.83
2023-08-15T18:18:42.261Z,48.55
2023-08-15T18:20:45.344Z,48.69
2023-08-15T18:22:48.080Z,48.58
2023-08-15T18:24:51.523Z,48.74
2023-08-15T18:26:54.816Z,48.81
2023-08-15T18:28:58.350Z,48.69
2023-08-15T18:31:01.133Z,48.60
2023-08-15T18:33:04.812Z,48.65
2023-08-15T18:35:09.193Z,48.72
2023-08-15T18:37:11.838Z,48.80
2023-08-15T18:39:17.748Z,49.00
2023-08-15T18:41:20.903Z,48.96
2023-08-15T18:43:24.614Z,48.84
2023-08-15T18:45:27.750Z,48.90
2023-08-15T18:47:32.056Z,49.07
2023-08-15T18:49:36.064Z,49.53
2023-08-15T18:51:40.619Z,49.59
2023-08-15T18:53:44.341Z,49.75
2023-08-15T18:55:46.910Z,49.72
2023-08-15T18:57:49.621Z,49.83
2023-08-15T18:59:53.914Z,50.19
2023-08-15T19:01:56.948Z,50.42
2023-08-15T19:03:59.795Z,50.70
2023-08-15T19:06:06.644Z,50.28
2023-08-15T19:08:09.781Z,50.31
2023-08-15T19:10:12.873Z,50.58
2023-08-15T19:12:17.016Z,50.14
2023-08-15T19:14:21.709Z,50.04
2023-08-15T19:16:24.945Z,50.29
2023-08-15T19:18:29.826Z,50.41
2023-08-15T19:20:34.833Z,50.46
2023-08-15T19:22:44.444Z,50.49
2023-08-15T19:24:48.098Z,50.46
2023-08-15T19:26:51.311Z,50.40
2023-08-15T19:28:55.712Z,50.69
2023-08-15T19:30:58.997Z,50.97
2023-08-15T19:33:02.201Z,50.81
2023-08-15T19:35:06.421Z,50.96
2023-08-15T19:37:11.214Z,51.24
2023-08-15T19:39:16.569Z,51.49
2023-08-15T19:41:19.552Z,51.75
2023-08-15T19:43:23.330Z,51.93
2023-08-15T19:45:29.595Z,52.19
2023-08-15T19:47:33.448Z,52.34
2023-08-15T19:49:37.691Z,52.46
2023-08-15T19:51:43.015Z,52.56
2023-08-15T19:53:46.713Z,52.89
2023-08-15T19:55:53.704Z,53.03
2023-08-15T19:57:57.904Z,52.84
2023-08-15T20:00:02.494Z,52.91
2023-08-15T20:02:06.246Z,53.11
2023-08-15T20:04:09.684Z,53.27
2023-08-15T20:06:12.392Z,53.25
2023-08-15T20:08:16.411Z,53.38
2023-08-15T20:10:19.428Z,53.37
2023-08-15T20:12:24.020Z,53.52
2023-08-15T20:14:29.540Z,53.27
2023-08-15T20:16:32.250Z,53.12
2023-08-15T20:18:34.964Z,52.93
2023-08-15T20:20:37.641Z,52.91
2023-08-15T20:22:40.577Z,53.00
2023-08-15T20:24:43.866Z,53.19
2023-08-15T20:26:47.163Z,53.40
2023-08-15T20:28:49.925Z,53.89
2023-08-15T20:30:52.751Z,54.20
2023-08-15T20:33:01.204Z,54.36
2023-08-15T20:35:04.683Z,54.64
2023-08-15T20:37:07.784Z,54.91
2023-08-15T20:39:10.856Z,55.10
2023-08-15T20:41:13.480Z,54.96
2023-08-15T20:43:17.133Z,55.18
2023-08-15T20:45:21.459Z,55.25
2023-08-15T20:47:25.632Z,55.49
2023-08-15T20:49:28.811Z,55.75
2023-08-15T20:51:32.269Z,55.72
2023-08-15T20:53:34.869Z,55.94
2023-08-15T20:55:37.540Z,56.10
2023-08-15T20:57:44.734Z,56.36
2023-08-15T20:59:47.551Z,56.46
2023-08-15T21:01:54.445Z,56.24
2023-08-15T21:03:57.227Z,56.44
2023-08-15T21:06:00.145Z,56.56
2023-08-15T21:08:04.639Z,56.78
2023-08-15T21:10:07.744Z,56.71
2023-08-15T21:12:10.804Z,56.90
2023-08-15T21:14:13.518Z,57.07
2023-08-15T21:16:16.499Z,57.19
2023-08-15T21:18:21.663Z,57.44
2023-08-15T21:20:31.142Z,57.52
2023-08-15T21:22:36.566Z,57.78
2023-08-15T21:24:40.356Z,57.64
2023-08-15T21:26:43.557Z,58.17
2023-08-15T21:28:46.539Z,58.60
2023-08-15T21:30:55.676Z,58.77
2023-08-15T21:32:58.805Z,59.47
2023-08-15T21:35:02.608Z,59.58
2023-08-15T21:37:07.473Z,59.41
2023-08-15T21:39:11.133Z,59.62
2023-08-15T21:41:18.400Z,60.03
2023-08-15T21:43:21.111Z,59.91
2023-08-15T21:45:24.212Z,60.21
2023-08-15T21:47:27.157Z,60.41
2023-08-15T21:49:30.275Z,60.52
2023-08-15T21:51:33.211Z,60.89
2023-08-15T21:53:36.549Z,60.90
2023-08-15T21:55:39.225Z,61.13
2023-08-15T21:57:42.941Z,61.31
2023-08-15T21:59:46.723Z,61.46
2023-08-15T22:01:50.809Z,61.69
2023-08-15T22:03:59.391Z,61.40
2023-08-15T22:06:05.846Z,61.52
2023-08-15T22:08:10.349Z,61.50
2023-08-15T22:10:15.693Z,61.52
2023-08-15T22:12:19.486Z,61.62
2023-08-15T22:14:22.822Z,61.78
2023-08-15T22:16:25.763Z,61.61
2023-08-15T22:18:28.698Z,61.34
2023-08-15T22:20:31.633Z,61.50
2023-08-15T22:22:36.195Z,61.31
2023-08-15T22:24:38.849Z,61.53
2023-08-15T22:26:44.376Z,61.57
2023-08-15T22:28:47.024Z,61.51
2023-08-15T22:30:49.913Z,61.56
2023-08-15T22:32:53.198Z,61.57
2023-08-15T22:34:58.912Z,61.57
2023-08-15T22:37:02.437Z,61.88
2023-08-15T22:39:05.671Z,61.87
2023-08-15T22:41:08.995Z,61.88
2023-08-15T22:43:11.593Z,61.86
2023-08-15T22:45:14.479Z,61.89
2023-08-15T22:47:18.233Z,61.89
2023-08-15T22:49:21.095Z,61.90
2023-08-15T22:51:23.814Z,61.92
2023-08-15T22:53:26.667Z,61.85
2023-08-15T22:57:57.174Z,62.10
2023-08-15T23:00:13.451Z,62.35
2023-08-15T23:02:16.436Z,62.42
2023-08-15T23:04:19.619Z,62.45
2023-08-15T23:06:24.470Z,62.48
2023-08-15T23:08:27.120Z,62.50
2023-08-15T23:10:29.928Z,62.38
2023-08-15T23:12:33.039Z,62.57
2023-08-15T23:14:35.866Z,62.39
2023-08-15T23:16:39.705Z,62.54
2023-08-15T23:18:42.397Z,62.64
2023-08-15T23:20:47.520Z,62.84
2023-08-15T23:22:50.067Z,62.82
2023-08-15T23:24:54.190Z,62.64
2023-08-15T23:26:57.412Z,62.63
2023-08-15T23:29:00.153Z,62.87
2023-08-15T23:31:04.624Z,62.90
2023-08-15T23:33:08.847Z,62.78
2023-08-15T23:35:14.546Z,62.60
2023-08-15T23:37:22.959Z,62.89
2023-08-15T23:39:26.266Z,63.00
2023-08-15T23:41:31.561Z,63.14
2023-08-15T23:43:35.984Z,63.28
2023-08-15T23:45:39.162Z,63.46
2023-08-15T23:47:42.623Z,63.22
2023-08-15T23:49:45.623Z,63.39
2023-08-15T23:51:51.176Z,63.41
2023-08-15T23:53:54.190Z,63.57
2023-08-15T23:55:56.877Z,63.43
2023-08-15T23:58:01.124Z,63.38
